sensor_id;sensor_type;location;lat;lon;timestamp;temperature;humidity
20483;DHT22;10400;53.198;6.592;2023-04-01T00:01:30;11.10;99.90
20483;DHT22;10400;53.198;6.592;2023-04-01T00:03:56;11.10;99.90
20483;DHT22;10400;53.198;6.592;2023-04-01T00:06:22;11.10;99.90
20483;DHT22;10400;53.198;6.592;2023-04-01T00:08:48;11.20;99.90
20483;DHT22;10400;53.198;6.592;2023-04-01T00:11:14;11.10;99.90
20483;DHT22;10400;53.198;6.592;2023-04-01T00:13:41;11.10;99.90
20483;DHT22;10400;53.198;6.592;2023-04-01T00:16:07;11.10;99.90
20483;DHT22;10400;53.198;6.592;2023-04-01T00:18:33;11.10;99.90
20483;DHT22;10400;53.198;6.592;2023-04-01T00:20:59;11.10;99.90
20483;DHT22;10400;53.198;6.592;2023-04-01T00:23:24;11.10;99.90
20483;DHT22;10400;53.198;6.592;2023-04-01T00:25:50;11.10;99.90
20483;DHT22;10400;53.198;6.592;2023-04-01T00:28:18;11.10;99.90
20483;DHT22;10400;53.198;6.592;2023-04-01T00:30:43;11.10;99.90
20483;DHT22;10400;53.198;6.592;2023-04-01T00:33:09;11.10;99.90
20483;DHT22;10400;53.198;6.592;2023-04-01T00:35:36;11.10;99.90
20483;DHT22;10400;53.198;6.592;2023-04-01T00:38:02;11.10;99.90
20483;DHT22;10400;53.198;6.592;2023-04-01T00:40:32;11.10;99.90
20483;DHT22;10400;53.198;6.592;2023-04-01T00:42:58;11.10;99.90
20483;DHT22;10400;53.198;6.592;2023-04-01T00:45:28;11.10;99.90
20483;DHT22;10400;53.198;6.592;2023-04-01T00:47:54;11.10;99.90
20483;DHT22;10400;53.198;6.592;2023-04-01T00:50:22;11.10;99.90
20483;DHT22;10400;53.198;6.592;2023-04-01T00:52:50;11.10;99.90
20483;DHT22;10400;53.198;6.592;2023-04-01T00:55:16;11.10;99.90
20483;DHT22;10400;53.198;6.592;2023-04-01T00:57:46;11.10;99.90
20483;DHT22;10400;53.198;6.592;2023-04-01T01:00:13;11.10;99.90
20483;DHT22;10400;53.198;6.592;2023-04-01T01:02:41;11.10;99.90
20483;DHT22;10400;53.198;6.592;2023-04-01T01:05:11;11.10;99.90
20483;DHT22;10400;53.198;6.592;2023-04-01T01:13:10;11.10;99.90
20483;DHT22;10400;53.198;6.592;2023-04-01T01:37:29;11.10;99.90
20483;DHT22;10400;53.198;6.592;2023-04-01T01:40:00;11.10;99.90
20483;DHT22;10400;53.198;6.592;2023-04-01T01:42:28;11.10;99.90
20483;DHT22;10400;53.198;6.592;2023-04-01T01:44:57;11.00;99.90
20483;DHT22;10400;53.198;6.592;2023-04-01T01:47:25;11.10;99.90
20483;DHT22;10400;53.198;6.592;2023-04-01T01:49:53;11.10;99.90
20483;DHT22;10400;53.198;6.592;2023-04-01T01:52:21;11.10;99.90
20483;DHT22;10400;53.198;6.592;2023-04-01T01:54:50;11.10;99.90
20483;DHT22;10400;53.198;6.592;2023-04-01T01:57:17;11.10;99.90
20483;DHT22;10400;53.198;6.592;2023-04-01T01:59:45;11.10;99.90
20483;DHT22;10400;53.198;6.592;2023-04-01T02:02:13;11.10;99.90
20483;DHT22;10400;53.198;6.592;2023-04-01T02:04:43;11.00;99.90
20483;DHT22;10400;53.198;6.592;2023-04-01T02:07:20;11.00;99.90
20483;DHT22;10400;53.198;6.592;2023-04-01T02:09:48;11.00;99.90
20483;DHT22;10400;53.198;6.592;2023-04-01T02:12:15;11.00;99.90
20483;DHT22;10400;53.198;6.592;2023-04-01T02:14:59;11.00;99.90
20483;DHT22;10400;53.198;6.592;2023-04-01T02:17:28;11.00;99.90
20483;DHT22;10400;53.198;6.592;2023-04-01T02:20:12;11.00;99.90
20483;DHT22;10400;53.198;6.592;2023-04-01T02:22:51;11.00;99.90
20483;DHT22;10400;53.198;6.592;2023-04-01T02:25:26;11.00;99.90
20483;DHT22;10400;53.198;6.592;2023-04-01T02:27:53;11.00;99.90
20483;DHT22;10400;53.198;6.592;2023-04-01T02:30:21;10.90;99.90
20483;DHT22;10400;53.198;6.592;2023-04-01T02:32:47;10.90;99.90
20483;DHT22;10400;53.198;6.592;2023-04-01T02:35:15;11.00;99.90
20483;DHT22;10400;53.198;6.592;2023-04-01T02:37:43;10.90;99.90
20483;DHT22;10400;53.198;6.592;2023-04-01T02:40:11;10.90;99.90
20483;DHT22;10400;53.198;6.592;2023-04-01T02:42:37;10.90;99.90
20483;DHT22;10400;53.198;6.592;2023-04-01T02:45:04;10.90;99.90
20483;DHT22;10400;53.198;6.592;2023-04-01T02:47:30;10.90;99.90
20483;DHT22;10400;53.198;6.592;2023-04-01T02:49:56;10.90;99.90
20483;DHT22;10400;53.198;6.592;2023-04-01T02:52:27;10.90;99.90
20483;DHT22;10400;53.198;6.592;2023-04-01T02:54:54;10.90;99.90
20483;DHT22;10400;53.198;6.592;2023-04-01T02:57:20;10.90;99.90
20483;DHT22;10400;53.198;6.592;2023-04-01T02:59:46;10.80;99.90
20483;DHT22;10400;53.198;6.592;2023-04-01T03:02:11;10.80;99.90
20483;DHT22;10400;53.198;6.592;2023-04-01T03:04:37;10.80;99.90
20483;DHT22;10400;53.198;6.592;2023-04-01T03:07:03;10.80;99.90
20483;DHT22;10400;53.198;6.592;2023-04-01T03:09:29;10.80;99.90
20483;DHT22;10400;53.198;6.592;2023-04-01T03:11:55;10.80;99.90
20483;DHT22;10400;53.198;6.592;2023-04-01T03:14:21;10.80;99.90
20483;DHT22;10400;53.198;6.592;2023-04-01T03:16:46;10.70;99.90
20483;DHT22;10400;53.198;6.592;2023-04-01T03:19:12;10.70;99.90
20483;DHT22;10400;53.198;6.592;2023-04-01T03:21:38;10.70;99.90
20483;DHT22;10400;53.198;6.592;2023-04-01T03:24:04;10.70;99.90
20483;DHT22;10400;53.198;6.592;2023-04-01T03:26:29;10.70;99.90
20483;DHT22;10400;53.198;6.592;2023-04-01T03:28:55;10.70;99.90
20483;DHT22;10400;53.198;6.592;2023-04-01T03:31:22;10.70;99.90
20483;DHT22;10400;53.198;6.592;2023-04-01T03:33:47;10.70;99.90
20483;DHT22;10400;53.198;6.592;2023-04-01T03:36:13;10.70;99.90
20483;DHT22;10400;53.198;6.592;2023-04-01T03:38:42;10.60;99.90
20483;DHT22;10400;53.198;6.592;2023-04-01T03:41:12;10.60;99.90
20483;DHT22;10400;53.198;6.592;2023-04-01T03:43:38;10.60;99.90
20483;DHT22;10400;53.198;6.592;2023-04-01T03:46:04;10.60;99.90
20483;DHT22;10400;53.198;6.592;2023-04-01T03:48:29;10.70;99.90
20483;DHT22;10400;53.198;6.592;2023-04-01T03:50:55;10.60;99.90
20483;DHT22;10400;53.198;6.592;2023-04-01T03:53:21;10.60;99.90
20483;DHT22;10400;53.198;6.592;2023-04-01T03:55:47;10.70;99.90
20483;DHT22;10400;53.198;6.592;2023-04-01T03:58:12;10.70;99.90
20483;DHT22;10400;53.198;6.592;2023-04-01T04:00:38;10.60;99.90
20483;DHT22;10400;53.198;6.592;2023-04-01T04:03:06;10.60;99.90
20483;DHT22;10400;53.198;6.592;2023-04-01T04:05:31;10.60;99.90
20483;DHT22;10400;53.198;6.592;2023-04-01T04:07:57;10.60;99.90
20483;DHT22;10400;53.198;6.592;2023-04-01T04:10:23;10.60;99.90
20483;DHT22;10400;53.198;6.592;2023-04-01T04:12:50;10.60;99.90
20483;DHT22;10400;53.198;6.592;2023-04-01T04:15:16;10.60;99.90
20483;DHT22;10400;53.198;6.592;2023-04-01T04:17:41;10.60;99.90
20483;DHT22;10400;53.198;6.592;2023-04-01T04:20:08;10.60;99.90
20483;DHT22;10400;53.198;6.592;2023-04-01T04:22:34;10.60;99.90
20483;DHT22;10400;53.198;6.592;2023-04-01T04:25:00;10.60;99.90
20483;DHT22;10400;53.198;6.592;2023-04-01T04:27:25;10.60;99.90
20483;DHT22;10400;53.198;6.592;2023-04-01T04:29:51;10.60;99.90
20483;DHT22;10400;53.198;6.592;2023-04-01T04:32:16;10.60;99.90
20483;DHT22;10400;53.198;6.592;2023-04-01T04:34:42;10.60;99.90
20483;DHT22;10400;53.198;6.592;2023-04-01T04:37:08;10.60;99.90
20483;DHT22;10400;53.198;6.592;2023-04-01T04:39:33;10.60;99.90
20483;DHT22;10400;53.198;6.592;2023-04-01T04:41:59;10.60;99.90
20483;DHT22;10400;53.198;6.592;2023-04-01T04:44:25;10.60;99.90
20483;DHT22;10400;53.198;6.592;2023-04-01T04:46:50;10.60;99.90
20483;DHT22;10400;53.198;6.592;2023-04-01T04:49:16;10.60;99.90
20483;DHT22;10400;53.198;6.592;2023-04-01T04:51:42;10.60;99.90
20483;DHT22;10400;53.198;6.592;2023-04-01T04:54:07;10.60;99.90
20483;DHT22;10400;53.198;6.592;2023-04-01T04:56:33;10.60;99.90
20483;DHT22;10400;53.198;6.592;2023-04-01T04:58:59;10.60;99.90
20483;DHT22;10400;53.198;6.592;2023-04-01T05:01:25;10.60;99.90
20483;DHT22;10400;53.198;6.592;2023-04-01T05:03:50;10.60;99.90
20483;DHT22;10400;53.198;6.592;2023-04-01T05:06:17;10.60;99.90
20483;DHT22;10400;53.198;6.592;2023-04-01T05:08:44;10.60;99.90
20483;DHT22;10400;53.198;6.592;2023-04-01T05:11:13;10.60;99.90
20483;DHT22;10400;53.198;6.592;2023-04-01T05:13:39;10.60;99.90
20483;DHT22;10400;53.198;6.592;2023-04-01T05:16:11;10.60;99.90
20483;DHT22;10400;53.198;6.592;2023-04-01T05:18:37;10.60;99.90
20483;DHT22;10400;53.198;6.592;2023-04-01T05:21:03;10.60;99.90
20483;DHT22;10400;53.198;6.592;2023-04-01T05:23:32;10.60;99.90
20483;DHT22;10400;53.198;6.592;2023-04-01T05:25:58;10.60;99.90
20483;DHT22;10400;53.198;6.592;2023-04-01T05:28:24;10.70;99.90
20483;DHT22;10400;53.198;6.592;2023-04-01T05:30:50;10.60;99.90
20483;DHT22;10400;53.198;6.592;2023-04-01T05:33:16;10.60;99.90
20483;DHT22;10400;53.198;6.592;2023-04-01T05:35:41;10.60;99.90
20483;DHT22;10400;53.198;6.592;2023-04-01T05:38:07;10.60;99.90
20483;DHT22;10400;53.198;6.592;2023-04-01T05:40:33;10.60;99.90
20483;DHT22;10400;53.198;6.592;2023-04-01T05:42:59;10.60;99.90
20483;DHT22;10400;53.198;6.592;2023-04-01T05:45:26;10.60;99.90
20483;DHT22;10400;53.198;6.592;2023-04-01T05:47:51;10.60;99.90
20483;DHT22;10400;53.198;6.592;2023-04-01T05:50:17;10.60;99.90
20483;DHT22;10400;53.198;6.592;2023-04-01T05:52:43;10.60;99.90
20483;DHT22;10400;53.198;6.592;2023-04-01T05:55:10;10.60;99.90
20483;DHT22;10400;53.198;6.592;2023-04-01T05:57:35;10.70;99.90
20483;DHT22;10400;53.198;6.592;2023-04-01T06:00:01;10.60;99.90
20483;DHT22;10400;53.198;6.592;2023-04-01T06:02:27;10.70;99.90
20483;DHT22;10400;53.198;6.592;2023-04-01T06:05:15;10.70;99.90
20483;DHT22;10400;53.198;6.592;2023-04-01T06:07:42;10.70;99.90
20483;DHT22;10400;53.198;6.592;2023-04-01T06:10:17;10.60;99.90
20483;DHT22;10400;53.198;6.592;2023-04-01T06:15:29;10.70;99.90
20483;DHT22;10400;53.198;6.592;2023-04-01T06:27:10;10.80;99.90
20483;DHT22;10400;53.198;6.592;2023-04-01T06:41:08;10.80;99.90
20483;DHT22;10400;53.198;6.592;2023-04-01T06:46:18;10.90;99.90
20483;DHT22;10400;53.198;6.592;2023-04-01T06:49:26;10.90;99.90
20483;DHT22;10400;53.198;6.592;2023-04-01T06:55:00;10.90;99.90
20483;DHT22;10400;53.198;6.592;2023-04-01T06:57:45;10.90;99.90
20483;DHT22;10400;53.198;6.592;2023-04-01T07:00:16;10.90;99.90
20483;DHT22;10400;53.198;6.592;2023-04-01T07:03:00;10.90;99.90
20483;DHT22;10400;53.198;6.592;2023-04-01T07:05:35;10.90;99.90
20483;DHT22;10400;53.198;6.592;2023-04-01T07:08:10;10.90;99.90
20483;DHT22;10400;53.198;6.592;2023-04-01T07:11:02;10.90;99.90
20483;DHT22;10400;53.198;6.592;2023-04-01T07:13:43;10.90;99.90
20483;DHT22;10400;53.198;6.592;2023-04-01T07:16:17;10.90;99.90
20483;DHT22;10400;53.198;6.592;2023-04-01T07:18:48;10.90;99.90
20483;DHT22;10400;53.198;6.592;2023-04-01T07:21:39;10.90;99.90
20483;DHT22;10400;53.198;6.592;2023-04-01T07:24:11;11.00;99.90
20483;DHT22;10400;53.198;6.592;2023-04-01T07:26:41;11.00;99.90
20483;DHT22;10400;53.198;6.592;2023-04-01T07:29:12;11.00;99.90
20483;DHT22;10400;53.198;6.592;2023-04-01T07:34:25;11.00;99.90
20483;DHT22;10400;53.198;6.592;2023-04-01T07:37:12;11.00;99.90
20483;DHT22;10400;53.198;6.592;2023-04-01T07:50:34;11.10;99.90
20483;DHT22;10400;53.198;6.592;2023-04-01T07:56:01;11.10;99.90
20483;DHT22;10400;53.198;6.592;2023-04-01T08:12:03;11.30;99.90
20483;DHT22;10400;53.198;6.592;2023-04-01T08:17:35;11.50;99.90
20483;DHT22;10400;53.198;6.592;2023-04-01T08:22:43;11.60;99.90
20483;DHT22;10400;53.198;6.592;2023-04-01T08:25:16;11.60;99.90
20483;DHT22;10400;53.198;6.592;2023-04-01T08:27:51;11.60;99.90
20483;DHT22;10400;53.198;6.592;2023-04-01T08:30:25;11.70;99.90
20483;DHT22;10400;53.198;6.592;2023-04-01T08:32:53;11.70;99.90
20483;DHT22;10400;53.198;6.592;2023-04-01T08:35:31;11.70;99.90
20483;DHT22;10400;53.198;6.592;2023-04-01T08:38:01;11.70;99.90
20483;DHT22;10400;53.198;6.592;2023-04-01T08:40:57;11.70;99.90
20483;DHT22;10400;53.198;6.592;2023-04-01T08:54:00;12.20;99.90
20483;DHT22;10400;53.198;6.592;2023-04-01T09:02:56;12.20;99.90
20483;DHT22;10400;53.198;6.592;2023-04-01T09:24:10;10.90;99.90
20483;DHT22;10400;53.198;6.592;2023-04-01T09:29:42;10.90;99.90
20483;DHT22;10400;53.198;6.592;2023-04-01T09:32:27;11.00;99.90
20483;DHT22;10400;53.198;6.592;2023-04-01T09:35:21;11.10;99.90
20483;DHT22;10400;53.198;6.592;2023-04-01T09:40:43;10.90;99.90
20483;DHT22;10400;53.198;6.592;2023-04-01T09:43:28;10.90;99.90
20483;DHT22;10400;53.198;6.592;2023-04-01T09:47:09;11.00;99.90
20483;DHT22;10400;53.198;6.592;2023-04-01T09:58:49;10.80;99.90
20483;DHT22;10400;53.198;6.592;2023-04-01T10:07:32;10.50;99.90
20483;DHT22;10400;53.198;6.592;2023-04-01T10:18:46;10.60;99.90
20483;DHT22;10400;53.198;6.592;2023-04-01T10:44:19;10.50;99.90
20483;DHT22;10400;53.198;6.592;2023-04-01T10:56:03;10.60;99.90
20483;DHT22;10400;53.198;6.592;2023-04-01T10:58:24;10.70;99.90
20483;DHT22;10400;53.198;6.592;2023-04-01T11:18:03;10.50;99.90
20483;DHT22;10400;53.198;6.592;2023-04-01T11:21:01;10.50;99.90
20483;DHT22;10400;53.198;6.592;2023-04-01T11:23:46;10.40;99.90
20483;DHT22;10400;53.198;6.592;2023-04-01T11:26:22;10.40;99.90
20483;DHT22;10400;53.198;6.592;2023-04-01T11:29:24;10.40;99.90
20483;DHT22;10400;53.198;6.592;2023-04-01T11:32:20;10.40;99.90
20483;DHT22;10400;53.198;6.592;2023-04-01T11:35:18;10.50;99.90
20483;DHT22;10400;53.198;6.592;2023-04-01T11:37:55;10.50;99.90
20483;DHT22;10400;53.198;6.592;2023-04-01T11:40:32;10.60;99.90
20483;DHT22;10400;53.198;6.592;2023-04-01T11:46:28;10.60;99.90
20483;DHT22;10400;53.198;6.592;2023-04-01T11:51:34;10.70;99.90
20483;DHT22;10400;53.198;6.592;2023-04-01T12:08:39;10.90;99.90
20483;DHT22;10400;53.198;6.592;2023-04-01T12:17:33;10.80;99.90
20483;DHT22;10400;53.198;6.592;2023-04-01T12:26:06;10.80;99.90
20483;DHT22;10400;53.198;6.592;2023-04-01T12:28:47;10.80;99.90
20483;DHT22;10400;53.198;6.592;2023-04-01T12:34:33;10.70;99.90
20483;DHT22;10400;53.198;6.592;2023-04-01T12:42:45;10.90;99.90
20483;DHT22;10400;53.198;6.592;2023-04-01T12:45:33;10.70;99.90
20483;DHT22;10400;53.198;6.592;2023-04-01T13:02:24;10.80;99.90
20483;DHT22;10400;53.198;6.592;2023-04-01T13:07:59;10.80;99.90
20483;DHT22;10400;53.198;6.592;2023-04-01T13:19:07;10.80;99.90
20483;DHT22;10400;53.198;6.592;2023-04-01T13:21:55;10.80;99.90
20483;DHT22;10400;53.198;6.592;2023-04-01T13:24:46;10.80;99.90
20483;DHT22;10400;53.198;6.592;2023-04-01T13:27:34;10.60;99.90
20483;DHT22;10400;53.198;6.592;2023-04-01T13:32:59;10.60;99.90
20483;DHT22;10400;53.198;6.592;2023-04-01T13:35:35;10.50;99.90
20483;DHT22;10400;53.198;6.592;2023-04-01T13:41:05;10.50;99.90
20483;DHT22;10400;53.198;6.592;2023-04-01T13:43:39;10.50;99.90
20483;DHT22;10400;53.198;6.592;2023-04-01T13:46:32;10.60;99.90
20483;DHT22;10400;53.198;6.592;2023-04-01T14:02:59;10.40;99.90
20483;DHT22;10400;53.198;6.592;2023-04-01T14:19:34;10.10;99.90
20483;DHT22;10400;53.198;6.592;2023-04-01T14:27:49;9.90;99.90
20483;DHT22;10400;53.198;6.592;2023-04-01T14:33:04;9.80;99.90
20483;DHT22;10400;53.198;6.592;2023-04-01T14:38:25;9.80;99.90
20483;DHT22;10400;53.198;6.592;2023-04-01T14:41:09;9.80;99.90
20483;DHT22;10400;53.198;6.592;2023-04-01T14:43:51;9.80;99.90
20483;DHT22;10400;53.198;6.592;2023-04-01T14:49:21;9.80;97.90
20483;DHT22;10400;53.198;6.592;2023-04-01T14:51:49;9.80;99.90
20483;DHT22;10400;53.198;6.592;2023-04-01T14:54:32;9.70;99.20
20483;DHT22;10400;53.198;6.592;2023-04-01T15:00:15;9.60;99.90
20483;DHT22;10400;53.198;6.592;2023-04-01T15:03:02;9.50;99.90
20483;DHT22;10400;53.198;6.592;2023-04-01T15:08:30;9.50;99.90
20483;DHT22;10400;53.198;6.592;2023-04-01T15:11:21;9.50;99.90
20483;DHT22;10400;53.198;6.592;2023-04-01T15:14:07;9.40;99.90
20483;DHT22;10400;53.198;6.592;2023-04-01T15:16:55;9.40;99.90
20483;DHT22;10400;53.198;6.592;2023-04-01T15:19:42;9.30;99.90
20483;DHT22;10400;53.198;6.592;2023-04-01T15:22:42;9.30;99.90
20483;DHT22;10400;53.198;6.592;2023-04-01T15:31:02;9.10;99.90
20483;DHT22;10400;53.198;6.592;2023-04-01T15:33:54;9.10;99.90
20483;DHT22;10400;53.198;6.592;2023-04-01T15:39:11;9.00;99.90
20483;DHT22;10400;53.198;6.592;2023-04-01T15:50:03;8.90;99.90
20483;DHT22;10400;53.198;6.592;2023-04-01T16:00:53;8.70;98.90
20483;DHT22;10400;53.198;6.592;2023-04-01T16:09:39;8.70;99.20
20483;DHT22;10400;53.198;6.592;2023-04-01T16:15:54;8.70;99.90
20483;DHT22;10400;53.198;6.592;2023-04-01T16:18:28;8.70;99.90
20483;DHT22;10400;53.198;6.592;2023-04-01T16:23:54;8.70;99.90
20483;DHT22;10400;53.198;6.592;2023-04-01T16:37:29;8.20;99.90
20483;DHT22;10400;53.198;6.592;2023-04-01T16:43:28;8.20;99.90
20483;DHT22;10400;53.198;6.592;2023-04-01T17:00:03;8.00;99.90
20483;DHT22;10400;53.198;6.592;2023-04-01T17:06:05;7.90;99.90
20483;DHT22;10400;53.198;6.592;2023-04-01T17:09:09;7.90;99.90
20483;DHT22;10400;53.198;6.592;2023-04-01T17:11:49;7.90;99.90
20483;DHT22;10400;53.198;6.592;2023-04-01T17:14:54;7.90;99.90
20483;DHT22;10400;53.198;6.592;2023-04-01T17:17:35;7.90;99.90
20483;DHT22;10400;53.198;6.592;2023-04-01T17:23:00;7.90;99.90
20483;DHT22;10400;53.198;6.592;2023-04-01T17:25:53;7.90;99.90
20483;DHT22;10400;53.198;6.592;2023-04-01T17:28:52;7.90;99.90
20483;DHT22;10400;53.198;6.592;2023-04-01T17:39:56;7.80;99.90
20483;DHT22;10400;53.198;6.592;2023-04-01T17:45:30;7.80;99.90
20483;DHT22;10400;53.198;6.592;2023-04-01T17:54:01;7.70;99.90
20483;DHT22;10400;53.198;6.592;2023-04-01T17:59:38;7.80;99.90
20483;DHT22;10400;53.198;6.592;2023-04-01T18:08:41;7.60;99.90
20483;DHT22;10400;53.198;6.592;2023-04-01T18:11:12;7.60;99.90
20483;DHT22;10400;53.198;6.592;2023-04-01T18:25:01;7.40;99.90
20483;DHT22;10400;53.198;6.592;2023-04-01T18:27:38;7.40;99.90
20483;DHT22;10400;53.198;6.592;2023-04-01T18:30:13;7.40;99.90
20483;DHT22;10400;53.198;6.592;2023-04-01T18:41:07;7.20;99.90
20483;DHT22;10400;53.198;6.592;2023-04-01T18:43:43;7.20;99.90
20483;DHT22;10400;53.198;6.592;2023-04-01T18:46:21;7.30;99.90
20483;DHT22;10400;53.198;6.592;2023-04-01T18:54:27;7.20;99.90
20483;DHT22;10400;53.198;6.592;2023-04-01T18:57:14;7.10;99.90
20483;DHT22;10400;53.198;6.592;2023-04-01T19:00:38;7.10;99.90
20483;DHT22;10400;53.198;6.592;2023-04-01T19:05:36;7.10;99.90
20483;DHT22;10400;53.198;6.592;2023-04-01T19:08:31;7.10;99.90
20483;DHT22;10400;53.198;6.592;2023-04-01T19:14:00;7.00;99.90
20483;DHT22;10400;53.198;6.592;2023-04-01T19:21:56;6.90;99.90
20483;DHT22;10400;53.198;6.592;2023-04-01T19:24:46;6.90;99.90
20483;DHT22;10400;53.198;6.592;2023-04-01T19:27:42;6.90;99.90
20483;DHT22;10400;53.198;6.592;2023-04-01T19:30:42;6.90;99.90
20483;DHT22;10400;53.198;6.592;2023-04-01T19:38:32;6.80;98.90
20483;DHT22;10400;53.198;6.592;2023-04-01T19:49:16;6.70;96.50
20483;DHT22;10400;53.198;6.592;2023-04-01T19:51:49;6.70;94.90
20483;DHT22;10400;53.198;6.592;2023-04-01T20:02:31;6.70;96.90
20483;DHT22;10400;53.198;6.592;2023-04-01T20:05:01;6.70;95.10
20483;DHT22;10400;53.198;6.592;2023-04-01T20:07:35;6.70;99.00
20483;DHT22;10400;53.198;6.592;2023-04-01T20:15:35;6.60;87.10
20483;DHT22;10400;53.198;6.592;2023-04-01T20:18:27;6.60;75.50
20483;DHT22;10400;53.198;6.592;2023-04-01T20:21:03;6.60;76.60
20483;DHT22;10400;53.198;6.592;2023-04-01T20:26:23;6.60;82.20
20483;DHT22;10400;53.198;6.592;2023-04-01T20:31:19;6.50;79.00
20483;DHT22;10400;53.198;6.592;2023-04-01T20:53:33;6.60;74.30
20483;DHT22;10400;53.198;6.592;2023-04-01T21:02:20;6.40;54.40
20483;DHT22;10400;53.198;6.592;2023-04-01T21:10:29;6.40;56.20
20483;DHT22;10400;53.198;6.592;2023-04-01T21:13:15;6.30;51.30
20483;DHT22;10400;53.198;6.592;2023-04-01T21:23:59;6.30;58.80
20483;DHT22;10400;53.198;6.592;2023-04-01T21:26:52;6.20;57.50
20483;DHT22;10400;53.198;6.592;2023-04-01T21:29:50;6.30;66.90
20483;DHT22;10400;53.198;6.592;2023-04-01T21:35:29;6.30;50.60
20483;DHT22;10400;53.198;6.592;2023-04-01T21:41:14;6.20;53.30
20483;DHT22;10400;53.198;6.592;2023-04-01T21:58:23;6.20;36.60
20483;DHT22;10400;53.198;6.592;2023-04-01T22:00:24;6.20;22.10
20483;DHT22;10400;53.198;6.592;2023-04-01T22:04:02;6.10;26.20
20483;DHT22;10400;53.198;6.592;2023-04-01T22:14:33;6.20;17.20
20483;DHT22;10400;53.198;6.592;2023-04-01T22:17:28;6.10;13.90
20483;DHT22;10400;53.198;6.592;2023-04-01T22:22:58;6.10;2.40
20483;DHT22;10400;53.198;6.592;2023-04-01T22:28:07;6.00;1.00
20483;DHT22;10400;53.198;6.592;2023-04-01T22:30:38;6.00;1.00
20483;DHT22;10400;53.198;6.592;2023-04-01T22:39:01;6.00;1.00
20483;DHT22;10400;53.198;6.592;2023-04-01T22:47:04;5.90;16.80
20483;DHT22;10400;53.198;6.592;2023-04-01T22:49:42;5.90;20.50
20483;DHT22;10400;53.198;6.592;2023-04-01T22:52:31;5.80;21.00
20483;DHT22;10400;53.198;6.592;2023-04-01T22:57:51;5.80;26.70
20483;DHT22;10400;53.198;6.592;2023-04-01T23:00:30;5.70;4.10
20483;DHT22;10400;53.198;6.592;2023-04-01T23:03:08;5.70;3.50
20483;DHT22;10400;53.198;6.592;2023-04-01T23:05:41;5.60;7.40
20483;DHT22;10400;53.198;6.592;2023-04-01T23:11:07;5.60;1.00
20483;DHT22;10400;53.198;6.592;2023-04-01T23:16:40;5.40;1.00
20483;DHT22;10400;53.198;6.592;2023-04-01T23:19:24;5.40;1.00
20483;DHT22;10400;53.198;6.592;2023-04-01T23:22:14;5.30;1.00
20483;DHT22;10400;53.198;6.592;2023-04-01T23:27:29;5.30;1.00
20483;DHT22;10400;53.198;6.592;2023-04-01T23:29:57;5.20;1.00
20483;DHT22;10400;53.198;6.592;2023-04-01T23:32:24;5.20;1.00
20483;DHT22;10400;53.198;6.592;2023-04-01T23:34:56;5.20;1.00
20483;DHT22;10400;53.198;6.592;2023-04-01T23:37:24;5.20;1.00
20483;DHT22;10400;53.198;6.592;2023-04-01T23:39:52;5.20;1.00
20483;DHT22;10400;53.198;6.592;2023-04-01T23:42:28;5.20;1.00
20483;DHT22;10400;53.198;6.592;2023-04-01T23:45:23;5.20;1.00
20483;DHT22;10400;53.198;6.592;2023-04-01T23:47:49;5.20;1.00
20483;DHT22;10400;53.198;6.592;2023-04-01T23:50:25;5.10;1.00
20483;DHT22;10400;53.198;6.592;2023-04-01T23:52:59;5.10;1.00
20483;DHT22;10400;53.198;6.592;2023-04-01T23:55:33;5.00;1.00
